Time;durP1;ratioP1;P1;durP2;ratioP2;P2;SDS_P1;SDS_P2;PMS_P1;PMS_P2;Temp;Humidity;BMP_temperature;BMP_pressure;BME280_temperature;BME280_humidity;BME280_pressure;Samples;Min_cycle;Max_cycle;Signal;HPM_P1;HPM_P2
2021/11/14 00:01:09;;;;;;;;;;;15.90;99.90;;;;;;5016599;28;763;-56
2021/11/14 00:03:36;;;;;;;;;;;15.80;99.90;;;;;;5002306;28;1263;-57
2021/11/14 00:06:03;;;;;;;;;;;15.80;99.90;;;;;;5017081;28;791;-56
2021/11/14 00:08:30;;;;;;;;;;;15.80;99.90;;;;;;5017051;28;819;-56
2021/11/14 00:10:57;;;;;;;;;;;15.80;99.90;;;;;;5016447;28;759;-56
2021/11/14 00:13:23;;;;;;;;;;;15.70;99.90;;;;;;4998085;28;1121;-56
2021/11/14 00:15:49;;;;;;;;;;;15.70;99.90;;;;;;5015571;28;1016;-55
2021/11/14 00:18:15;;;;;;;;;;;15.60;99.90;;;;;;5016048;28;1914;-56
2021/11/14 00:20:42;;;;;;;;;;;15.60;99.90;;;;;;5018719;28;811;-55
2021/11/14 00:23:08;;;;;;;;;;;15.60;99.90;;;;;;5032929;28;1005;-56
2021/11/14 00:25:34;;;;;;;;;;;15.50;99.90;;;;;;5020539;28;810;-52
2021/11/14 00:28:00;;;;;;;;;;;15.50;99.90;;;;;;5020492;28;850;-52
2021/11/14 00:30:26;;;;;;;;;;;15.50;99.90;;;;;;4979258;28;1241;-52
2021/11/14 00:32:52;;;;;;;;;;;15.50;99.90;;;;;;4979627;28;1049;-51
2021/11/14 00:35:19;;;;;;;;;;;15.40;99.90;;;;;;4979681;28;1040;-55
2021/11/14 00:37:45;;;;;;;;;;;15.40;99.90;;;;;;4979659;28;790;-55
2021/11/14 00:40:14;;;;;;;;;;;15.40;99.90;;;;;;4979406;28;1902;-57
2021/11/14 00:42:40;;;;;;;;;;;15.30;99.90;;;;;;4979549;28;839;-56
2021/11/14 00:45:07;;;;;;;;;;;15.30;99.90;;;;;;4979334;28;962;-55
2021/11/14 00:47:33;;;;;;;;;;;15.30;99.90;;;;;;4979320;28;823;-57
2021/11/14 00:49:59;;;;;;;;;;;15.20;99.90;;;;;;4979308;28;1016;-55
2021/11/14 00:52:25;;;;;;;;;;;15.20;99.90;;;;;;4985810;28;906;-55
2021/11/14 00:54:51;;;;;;;;;;;15.20;99.90;;;;;;4968243;28;1039;-56
2021/11/14 00:57:17;;;;;;;;;;;15.10;99.90;;;;;;4997050;28;889;-55
2021/11/14 00:59:43;;;;;;;;;;;15.10;99.90;;;;;;4996935;28;1961;-57
2021/11/14 01:02:09;;;;;;;;;;;15.10;99.90;;;;;;5029372;28;962;-55
2021/11/14 01:04:35;;;;;;;;;;;15.10;99.90;;;;;;5037645;28;843;-55
2021/11/14 01:07:01;;;;;;;;;;;15.10;99.90;;;;;;5038081;28;863;-57
2021/11/14 01:09:27;;;;;;;;;;;15.00;99.90;;;;;;5038396;28;883;-55
2021/11/14 01:11:53;;;;;;;;;;;15.00;99.90;;;;;;5037410;28;1053;-55
2021/11/14 01:14:20;;;;;;;;;;;15.00;99.90;;;;;;5019477;28;1310;-52
2021/11/14 01:16:46;;;;;;;;;;;14.90;99.90;;;;;;5021808;28;1448;-52
2021/11/14 01:19:12;;;;;;;;;;;14.90;99.90;;;;;;5019454;28;1953;-55
2021/11/14 01:21:38;;;;;;;;;;;14.90;99.90;;;;;;5020284;28;971;-55
2021/11/14 01:24:04;;;;;;;;;;;14.80;99.90;;;;;;5037909;28;876;-55
2021/11/14 01:26:30;;;;;;;;;;;14.80;99.90;;;;;;5014360;28;1048;-57
2021/11/14 01:28:56;;;;;;;;;;;14.80;99.90;;;;;;5037728;28;805;-55
2021/11/14 01:31:22;;;;;;;;;;;14.80;99.90;;;;;;5036860;28;791;-57
2021/11/14 01:33:48;;;;;;;;;;;14.70;99.90;;;;;;5025154;28;1041;-57
2021/11/14 01:36:14;;;;;;;;;;;14.80;99.90;;;;;;5019158;28;795;-57
2021/11/14 01:38:40;;;;;;;;;;;14.80;99.90;;;;;;5019031;28;1962;-57
2021/11/14 01:41:08;;;;;;;;;;;14.80;99.90;;;;;;5019172;28;854;-57
2021/11/14 01:43:38;;;;;;;;;;;14.70;99.90;;;;;;5018817;28;906;-52
2021/11/14 01:46:03;;;;;;;;;;;14.70;99.90;;;;;;5035877;28;784;-52
2021/11/14 01:48:30;;;;;;;;;;;14.70;99.90;;;;;;5018896;28;837;-52
2021/11/14 01:50:56;;;;;;;;;;;14.70;99.90;;;;;;5037454;28;862;-52
2021/11/14 01:53:24;;;;;;;;;;;14.70;99.90;;;;;;5037040;28;845;-52
2021/11/14 01:55:51;;;;;;;;;;;14.70;99.90;;;;;;5037287;28;809;-52
2021/11/14 01:58:20;;;;;;;;;;;14.60;99.90;;;;;;5037149;28;1906;-52
2021/11/14 02:00:49;;;;;;;;;;;14.60;99.90;;;;;;5037153;28;863;-52
2021/11/14 02:03:15;;;;;;;;;;;14.60;99.90;;;;;;5019162;28;912;-53
2021/11/14 02:05:41;;;;;;;;;;;14.60;99.90;;;;;;5018848;28;795;-51
2021/11/14 02:08:08;;;;;;;;;;;14.50;99.90;;;;;;5036848;28;899;-52
2021/11/14 02:10:34;;;;;;;;;;;14.60;99.90;;;;;;5036731;28;783;-52
2021/11/14 02:13:01;;;;;;;;;;;14.50;99.90;;;;;;5035946;28;1001;-52
2021/11/14 02:15:27;;;;;;;;;;;14.50;99.90;;;;;;5036315;28;1058;-52
2021/11/14 02:17:53;;;;;;;;;;;14.50;99.90;;;;;;5036500;28;782;-52
2021/11/14 02:20:19;;;;;;;;;;;14.50;99.90;;;;;;5036512;28;1902;-51
2021/11/14 02:22:46;;;;;;;;;;;14.50;99.90;;;;;;5036454;28;897;-51
2021/11/14 02:25:12;;;;;;;;;;;14.50;99.90;;;;;;5036783;28;787;-52
2021/11/14 02:27:38;;;;;;;;;;;14.40;99.90;;;;;;5036598;28;928;-51
2021/11/14 02:30:06;;;;;;;;;;;14.40;99.90;;;;;;5036400;28;845;-51
2021/11/14 02:32:32;;;;;;;;;;;14.40;99.90;;;;;;5035914;28;996;-51
2021/11/14 02:34:58;;;;;;;;;;;14.40;99.90;;;;;;5035624;28;926;-52
2021/11/14 02:37:24;;;;;;;;;;;14.40;99.90;;;;;;5018800;28;931;-52
2021/11/14 02:39:52;;;;;;;;;;;14.30;99.90;;;;;;5035653;28;1906;-52
2021/11/14 02:42:18;;;;;;;;;;;14.40;99.90;;;;;;5035550;28;885;-51
2021/11/14 02:44:44;;;;;;;;;;;14.40;99.90;;;;;;5032048;28;1382;-51
2021/11/14 02:47:11;;;;;;;;;;;14.30;99.90;;;;;;5025647;28;780;-52
2021/11/14 02:49:37;;;;;;;;;;;14.30;99.90;;;;;;5017857;28;897;-52
2021/11/14 02:52:04;;;;;;;;;;;14.30;99.90;;;;;;5022097;28;882;-52
2021/11/14 02:54:31;;;;;;;;;;;14.30;99.90;;;;;;5040607;28;1533;-56
2021/11/14 02:56:56;;;;;;;;;;;14.30;99.90;;;;;;5018883;28;902;-55
2021/11/14 02:59:22;;;;;;;;;;;14.30;99.90;;;;;;5017872;28;1902;-55
2021/11/14 03:01:52;;;;;;;;;;;14.30;99.90;;;;;;5017456;28;751;-55
2021/11/14 03:04:19;;;;;;;;;;;14.20;99.90;;;;;;5017717;28;932;-55
2021/11/14 03:06:46;;;;;;;;;;;14.20;99.90;;;;;;5017430;28;971;-55
2021/11/14 03:09:13;;;;;;;;;;;14.20;99.90;;;;;;5016854;28;879;-55
2021/11/14 03:11:39;;;;;;;;;;;14.20;99.90;;;;;;5017483;28;1033;-55
2021/11/14 03:14:05;;;;;;;;;;;14.20;99.90;;;;;;5005494;28;1264;-51
2021/11/14 03:16:32;;;;;;;;;;;14.20;99.90;;;;;;5016447;28;1007;-55
2021/11/14 03:18:58;;;;;;;;;;;14.20;99.90;;;;;;4998813;28;1967;-56
2021/11/14 03:21:25;;;;;;;;;;;14.20;99.90;;;;;;5035776;28;1195;-53
2021/11/14 03:23:51;;;;;;;;;;;14.10;99.90;;;;;;5017847;28;810;-51
2021/11/14 03:26:17;;;;;;;;;;;14.10;99.90;;;;;;5035038;28;858;-52
2021/11/14 03:28:44;;;;;;;;;;;14.10;99.90;;;;;;5035404;28;853;-51
2021/11/14 03:31:10;;;;;;;;;;;14.10;99.90;;;;;;5035004;28;786;-51
2021/11/14 03:33:36;;;;;;;;;;;14.10;99.90;;;;;;5034855;28;1173;-51
2021/11/14 03:36:10;;;;;;;;;;;14.10;99.90;;;;;;5035251;28;805;-51
2021/11/14 03:38:40;;;;;;;;;;;14.10;99.90;;;;;;5035148;28;1965;-51
2021/11/14 03:41:07;;;;;;;;;;;14.10;99.90;;;;;;5035201;28;889;-51
2021/11/14 03:43:35;;;;;;;;;;;14.00;99.90;;;;;;5035152;28;1058;-51
2021/11/14 03:46:01;;;;;;;;;;;14.00;99.90;;;;;;5017463;28;781;-51
2021/11/14 03:48:28;;;;;;;;;;;14.00;99.90;;;;;;5017412;28;919;-51
2021/11/14 03:50:54;;;;;;;;;;;14.00;99.90;;;;;;5035366;28;866;-56
2021/11/14 03:53:20;;;;;;;;;;;14.00;99.90;;;;;;5034770;28;1017;-55
2021/11/14 03:55:47;;;;;;;;;;;14.00;99.90;;;;;;5017569;28;1388;-55
2021/11/14 03:58:13;;;;;;;;;;;14.00;99.90;;;;;;5034970;28;786;-52
2021/11/14 04:00:43;;;;;;;;;;;13.90;99.90;;;;;;5035008;28;1906;-55
2021/11/14 04:03:09;;;;;;;;;;;13.90;99.90;;;;;;5034643;28;948;-55
2021/11/14 04:05:36;;;;;;;;;;;13.90;99.90;;;;;;5034298;28;838;-56
2021/11/14 04:08:05;;;;;;;;;;;13.90;99.90;;;;;;5034955;28;790;-55
2021/11/14 04:10:31;;;;;;;;;;;13.90;99.90;;;;;;5034400;28;889;-51
2021/11/14 04:12:57;;;;;;;;;;;13.90;99.90;;;;;;5034825;28;787;-56
2021/11/14 04:15:23;;;;;;;;;;;13.90;99.90;;;;;;5034607;28;1250;-55
2021/11/14 04:17:55;;;;;;;;;;;13.90;99.90;;;;;;5017409;28;870;-56
2021/11/14 04:20:22;;;;;;;;;;;13.80;99.90;;;;;;5034800;28;1957;-55
2021/11/14 04:22:48;;;;;;;;;;;13.80;99.90;;;;;;5034715;28;931;-55
2021/11/14 04:25:14;;;;;;;;;;;13.80;99.90;;;;;;5034756;28;841;-55
2021/11/14 04:27:40;;;;;;;;;;;13.80;99.90;;;;;;5034408;28;896;-55
2021/11/14 04:30:08;;;;;;;;;;;13.80;99.90;;;;;;5016710;28;1151;-55
2021/11/14 04:32:34;;;;;;;;;;;13.80;99.90;;;;;;5016184;28;794;-55
2021/11/14 04:35:00;;;;;;;;;;;13.80;99.90;;;;;;5016584;28;1019;-55
2021/11/14 04:37:25;;;;;;;;;;;13.80;99.90;;;;;;5016464;28;872;-55
2021/11/14 04:39:52;;;;;;;;;;;13.80;99.90;;;;;;5016397;28;1960;-55
2021/11/14 04:42:18;;;;;;;;;;;13.70;99.90;;;;;;5016480;28;805;-55
2021/11/14 04:44:43;;;;;;;;;;;13.70;99.90;;;;;;5016317;28;1099;-55
2021/11/14 04:47:09;;;;;;;;;;;13.70;99.90;;;;;;5016218;28;873;-56
2021/11/14 04:49:35;;;;;;;;;;;13.70;99.90;;;;;;5016688;28;967;-51
2021/11/14 04:52:04;;;;;;;;;;;13.70;99.90;;;;;;5002568;28;770;-51
2021/11/14 04:54:30;;;;;;;;;;;13.70;99.90;;;;;;5034374;28;810;-52
2021/11/14 04:56:57;;;;;;;;;;;13.70;99.90;;;;;;5034402;28;820;-51
2021/11/14 04:59:23;;;;;;;;;;;13.70;99.90;;;;;;5033861;28;1971;-52
2021/11/14 05:01:49;;;;;;;;;;;13.70;99.90;;;;;;5033724;28;1220;-51
2021/11/14 05:04:15;;;;;;;;;;;13.60;99.90;;;;;;5034360;28;846;-51
2021/11/14 05:06:41;;;;;;;;;;;13.60;99.90;;;;;;5036132;28;789;-52
2021/11/14 05:09:07;;;;;;;;;;;13.60;99.90;;;;;;5037909;28;926;-51
2021/11/14 05:11:33;;;;;;;;;;;13.60;99.90;;;;;;5038136;28;846;-56
2021/11/14 05:13:59;;;;;;;;;;;13.60;99.90;;;;;;5038170;28;972;-51
2021/11/14 05:16:25;;;;;;;;;;;13.60;99.90;;;;;;5036960;28;1360;-51
2021/11/14 05:18:51;;;;;;;;;;;13.60;99.90;;;;;;5037584;28;1902;-51
2021/11/14 05:21:17;;;;;;;;;;;13.60;99.90;;;;;;5037937;28;775;-52
2021/11/14 05:23:43;;;;;;;;;;;13.60;99.90;;;;;;5007569;28;1299;-56
2021/11/14 05:26:09;;;;;;;;;;;13.60;99.90;;;;;;5018976;28;874;-55
2021/11/14 05:28:35;;;;;;;;;;;13.60;99.90;;;;;;5001378;28;862;-54
2021/11/14 05:31:01;;;;;;;;;;;13.60;99.90;;;;;;5018945;28;783;-55
2021/11/14 05:33:27;;;;;;;;;;;13.60;99.90;;;;;;5037547;28;869;-55
2021/11/14 05:35:53;;;;;;;;;;;13.60;99.90;;;;;;5037447;28;815;-56
2021/11/14 05:38:19;;;;;;;;;;;13.50;99.90;;;;;;5037658;28;783;-52
2021/11/14 05:40:47;;;;;;;;;;;13.50;99.90;;;;;;5037265;28;1898;-52
2021/11/14 05:43:13;;;;;;;;;;;13.50;99.90;;;;;;5036383;28;1004;-52
2021/11/14 05:45:40;;;;;;;;;;;13.50;99.90;;;;;;5037510;28;807;-52
2021/11/14 05:48:06;;;;;;;;;;;13.50;99.90;;;;;;5036763;28;833;-52
2021/11/14 05:50:33;;;;;;;;;;;13.50;99.90;;;;;;5037095;28;802;-51
2021/11/14 05:52:59;;;;;;;;;;;13.50;99.90;;;;;;5036650;28;904;-52
2021/11/14 05:55:25;;;;;;;;;;;13.50;99.90;;;;;;5037032;28;906;-52
2021/11/14 06:00:26;;;;;;;;;;;13.40;99.90;;;;;;5004901;28;1960;-55
2021/11/14 06:03:02;;;;;;;;;;;13.40;99.90;;;;;;5017866;28;1266;-55
2021/11/14 06:05:29;;;;;;;;;;;13.40;99.90;;;;;;5024821;28;971;-56
2021/11/14 06:07:55;;;;;;;;;;;13.40;99.90;;;;;;5018740;28;813;-55
2021/11/14 06:10:21;;;;;;;;;;;13.40;99.90;;;;;;5018890;28;813;-56
2021/11/14 06:12:47;;;;;;;;;;;13.40;99.90;;;;;;5025798;28;1030;-52
2021/11/14 06:15:15;;;;;;;;;;;13.40;99.90;;;;;;5029160;28;1204;-52
2021/11/14 06:17:41;;;;;;;;;;;13.30;99.90;;;;;;5027963;28;1379;-55
2021/11/14 06:20:07;;;;;;;;;;;13.30;99.90;;;;;;5026691;28;1915;-55
2021/11/14 06:22:35;;;;;;;;;;;13.30;99.90;;;;;;5029728;28;1292;-55
2021/11/14 06:25:02;;;;;;;;;;;13.30;99.90;;;;;;5028967;28;1244;-56
2021/11/14 06:27:28;;;;;;;;;;;13.30;99.90;;;;;;5030362;28;1272;-56
2021/11/14 06:29:54;;;;;;;;;;;13.30;99.90;;;;;;5024230;28;1153;-56
2021/11/14 06:32:20;;;;;;;;;;;13.30;99.90;;;;;;5027353;28;1180;-55
2021/11/14 06:34:46;;;;;;;;;;;13.30;99.90;;;;;;5030981;28;1161;-56
2021/11/14 06:37:12;;;;;;;;;;;13.20;99.90;;;;;;5028720;28;1367;-55
2021/11/14 06:39:39;;;;;;;;;;;13.20;99.90;;;;;;5033308;28;2002;-56
2021/11/14 06:42:05;;;;;;;;;;;13.20;99.90;;;;;;5031415;28;1014;-56
2021/11/14 06:44:31;;;;;;;;;;;13.20;99.90;;;;;;5016867;28;1106;-55
2021/11/14 06:46:57;;;;;;;;;;;13.20;99.90;;;;;;5015958;28;812;-56
2021/11/14 06:49:23;;;;;;;;;;;13.20;99.90;;;;;;5016933;28;947;-56
2021/11/14 06:51:49;;;;;;;;;;;13.20;99.90;;;;;;5019670;28;869;-56
2021/11/14 06:54:15;;;;;;;;;;;13.20;99.90;;;;;;5035234;28;992;-52
2021/11/14 06:56:41;;;;;;;;;;;13.20;99.90;;;;;;5035957;28;1565;-52
2021/11/14 06:59:07;;;;;;;;;;;13.20;99.90;;;;;;5035912;28;1948;-52
2021/11/14 07:01:33;;;;;;;;;;;13.20;99.90;;;;;;5035535;28;978;-52
2021/11/14 07:03:59;;;;;;;;;;;13.20;99.90;;;;;;5035855;28;752;-52
2021/11/14 07:06:25;;;;;;;;;;;13.20;99.90;;;;;;5035882;28;791;-56
2021/11/14 07:08:51;;;;;;;;;;;13.20;99.90;;;;;;5035606;28;921;-56
2021/11/14 07:11:17;;;;;;;;;;;13.20;99.90;;;;;;5018191;28;1023;-56
2021/11/14 07:13:44;;;;;;;;;;;13.20;99.90;;;;;;5017703;28;838;-56
2021/11/14 07:16:10;;;;;;;;;;;13.20;99.90;;;;;;5035128;28;1204;-55
2021/11/14 07:18:36;;;;;;;;;;;13.10;99.90;;;;;;5035431;28;919;-56
2021/11/14 07:21:02;;;;;;;;;;;13.20;99.90;;;;;;5035352;28;1984;-57
2021/11/14 07:23:28;;;;;;;;;;;13.20;99.90;;;;;;5035654;28;893;-55
2021/11/14 07:25:54;;;;;;;;;;;13.20;99.90;;;;;;5034568;28;872;-52
2021/11/14 07:28:20;;;;;;;;;;;13.20;99.90;;;;;;5028430;28;1327;-52
2021/11/14 07:30:46;;;;;;;;;;;13.20;99.90;;;;;;5016704;28;846;-52
2021/11/14 07:33:12;;;;;;;;;;;13.20;99.90;;;;;;5016647;28;1100;-52
2021/11/14 07:35:38;;;;;;;;;;;13.30;99.90;;;;;;5017160;28;842;-52
2021/11/14 07:38:04;;;;;;;;;;;13.30;99.90;;;;;;5016501;28;875;-52
2021/11/14 07:40:30;;;;;;;;;;;13.30;99.90;;;;;;5016600;28;1914;-56
2021/11/14 07:42:56;;;;;;;;;;;13.40;99.90;;;;;;5015947;28;913;-56
2021/11/14 07:45:23;;;;;;;;;;;13.40;99.90;;;;;;5016914;28;766;-56
2021/11/14 07:47:50;;;;;;;;;;;13.50;99.90;;;;;;5016319;28;889;-55
2021/11/14 07:50:16;;;;;;;;;;;13.60;99.90;;;;;;5017045;28;884;-56
2021/11/14 07:52:43;;;;;;;;;;;13.80;99.90;;;;;;5025260;28;809;-55
2021/11/14 07:55:10;;;;;;;;;;;13.90;99.90;;;;;;5034941;28;1155;-57
2021/11/14 07:57:40;;;;;;;;;;;14.10;99.90;;;;;;5017905;28;845;-55
2021/11/14 08:00:07;;;;;;;;;;;14.30;99.90;;;;;;5034776;28;1971;-57
2021/11/14 08:02:33;;;;;;;;;;;14.50;99.90;;;;;;5034354;28;881;-56
2021/11/14 08:04:59;;;;;;;;;;;14.70;99.90;;;;;;5035161;28;869;-55
2021/11/14 08:07:25;;;;;;;;;;;14.90;99.90;;;;;;5004708;28;902;-57
2021/11/14 08:09:52;;;;;;;;;;;15.10;99.90;;;;;;5016960;28;1077;-56
2021/11/14 08:12:18;;;;;;;;;;;15.20;99.90;;;;;;5016742;28;857;-56
2021/11/14 08:14:44;;;;;;;;;;;15.40;99.90;;;;;;5016725;28;966;-56
2021/11/14 08:17:09;;;;;;;;;;;15.50;99.90;;;;;;5025312;28;1392;-52
2021/11/14 08:19:35;;;;;;;;;;;15.60;99.90;;;;;;5022980;28;1910;-52
2021/11/14 08:22:02;;;;;;;;;;;15.70;99.90;;;;;;5020499;28;960;-51
2021/11/14 08:24:28;;;;;;;;;;;15.80;99.90;;;;;;5016638;28;762;-56
2021/11/14 08:26:54;;;;;;;;;;;15.90;99.90;;;;;;5034790;28;834;-56
2021/11/14 08:29:20;;;;;;;;;;;15.90;99.90;;;;;;5034787;28;867;-55
2021/11/14 08:31:46;;;;;;;;;;;15.90;99.90;;;;;;5034344;28;1137;-56
2021/11/14 08:34:12;;;;;;;;;;;15.90;99.90;;;;;;5034714;28;978;-56
2021/11/14 08:36:38;;;;;;;;;;;15.90;99.90;;;;;;5034948;28;895;-56
2021/11/14 08:39:04;;;;;;;;;;;15.90;99.90;;;;;;5035859;28;1374;-56
2021/11/14 08:41:30;;;;;;;;;;;15.80;99.90;;;;;;5022391;28;2031;-56
2021/11/14 08:43:56;;;;;;;;;;;15.80;99.90;;;;;;5020248;28;812;-56
2021/11/14 08:46:22;;;;;;;;;;;15.70;99.90;;;;;;5020210;28;820;-56
2021/11/14 08:48:49;;;;;;;;;;;15.70;99.90;;;;;;5002548;28;819;-56
2021/11/14 08:51:15;;;;;;;;;;;15.60;99.90;;;;;;5020211;28;840;-56
2021/11/14 08:53:41;;;;;;;;;;;15.60;99.90;;;;;;5036249;28;925;-55
2021/11/14 08:56:07;;;;;;;;;;;15.50;99.90;;;;;;5038471;28;802;-56
2021/11/14 08:58:34;;;;;;;;;;;15.50;99.90;;;;;;5038095;28;869;-55
2021/11/14 09:01:02;;;;;;;;;;;15.40;99.90;;;;;;5037661;28;1973;-55
2021/11/14 09:03:28;;;;;;;;;;;15.30;99.90;;;;;;5020506;28;862;-56
2021/11/14 09:05:54;;;;;;;;;;;15.30;99.90;;;;;;5038205;28;839;-56
2021/11/14 09:08:20;;;;;;;;;;;15.20;99.90;;;;;;5037612;28;948;-56
2021/11/14 09:10:46;;;;;;;;;;;15.20;99.90;;;;;;5037530;28;909;-55
2021/11/14 09:13:13;;;;;;;;;;;15.10;99.90;;;;;;5037504;28;834;-56
2021/11/14 09:15:39;;;;;;;;;;;15.10;99.90;;;;;;5037874;28;1233;-52
2021/11/14 09:18:05;;;;;;;;;;;15.10;99.90;;;;;;5037760;28;978;-52
2021/11/14 09:20:31;;;;;;;;;;;15.00;99.90;;;;;;5037904;28;1965;-52
2021/11/14 09:22:58;;;;;;;;;;;15.00;99.90;;;;;;5036909;28;1369;-52
2021/11/14 09:25:25;;;;;;;;;;;15.00;99.90;;;;;;5037659;28;856;-52
2021/11/14 09:27:51;;;;;;;;;;;14.90;99.90;;;;;;5037609;28;837;-52
2021/11/14 09:30:17;;;;;;;;;;;14.90;99.90;;;;;;5026757;28;1243;-52
2021/11/14 09:32:44;;;;;;;;;;;14.90;99.90;;;;;;5019072;28;869;-52
2021/11/14 09:35:11;;;;;;;;;;;14.80;99.90;;;;;;5019317;28;860;-52
2021/11/14 09:37:38;;;;;;;;;;;14.80;99.90;;;;;;5019280;28;865;-52
2021/11/14 09:40:04;;;;;;;;;;;14.80;99.90;;;;;;5019508;28;1965;-52
2021/11/14 09:42:32;;;;;;;;;;;14.70;99.90;;;;;;5018994;28;865;-52
2021/11/14 09:44:58;;;;;;;;;;;14.80;99.90;;;;;;5001955;28;874;-52
2021/11/14 09:47:24;;;;;;;;;;;14.70;99.90;;;;;;5018781;28;871;-55
2021/11/14 09:49:50;;;;;;;;;;;14.70;99.90;;;;;;5019166;28;1031;-55
2021/11/14 09:52:17;;;;;;;;;;;14.70;99.90;;;;;;5024748;28;838;-55
2021/11/14 09:54:42;;;;;;;;;;;14.70;99.90;;;;;;5037801;28;873;-55
2021/11/14 09:57:09;;;;;;;;;;;14.70;99.90;;;;;;5037352;28;767;-55
2021/11/14 09:59:35;;;;;;;;;;;14.60;99.90;;;;;;5037169;28;1967;-56
2021/11/14 10:02:02;;;;;;;;;;;14.60;99.90;;;;;;5018774;28;1159;-57
2021/11/14 10:04:29;;;;;;;;;;;14.60;99.90;;;;;;5036504;28;963;-56
2021/11/14 10:06:55;;;;;;;;;;;14.60;99.90;;;;;;5037122;28;817;-56
2021/11/14 10:09:27;;;;;;;;;;;14.60;99.90;;;;;;5036820;28;869;-55
2021/11/14 10:11:53;;;;;;;;;;;14.60;99.90;;;;;;5019194;28;1068;-55
2021/11/14 10:14:21;;;;;;;;;;;14.60;99.90;;;;;;5036372;28;910;-56
2021/11/14 10:16:47;;;;;;;;;;;14.60;99.90;;;;;;5036334;28;1371;-55
2021/11/14 10:19:14;;;;;;;;;;;14.60;99.90;;;;;;5036638;28;842;-56
2021/11/14 10:21:40;;;;;;;;;;;14.60;99.90;;;;;;5036039;28;1963;-55
2021/11/14 10:24:07;;;;;;;;;;;14.60;99.90;;;;;;5036593;28;851;-55
2021/11/14 10:26:34;;;;;;;;;;;14.60;99.90;;;;;;5018154;28;899;-55
2021/11/14 10:29:02;;;;;;;;;;;14.60;99.90;;;;;;5018327;28;843;-55
2021/11/14 10:31:28;;;;;;;;;;;14.70;99.90;;;;;;5001137;28;857;-55
2021/11/14 10:33:54;;;;;;;;;;;14.60;99.90;;;;;;5018157;28;896;-57
2021/11/14 10:36:21;;;;;;;;;;;14.70;99.90;;;;;;5018324;28;850;-57
2021/11/14 10:38:47;;;;;;;;;;;14.70;99.90;;;;;;5018160;28;829;-55
2021/11/14 10:41:14;;;;;;;;;;;14.70;99.90;;;;;;5018362;28;1898;-55
2021/11/14 10:43:42;;;;;;;;;;;14.70;99.90;;;;;;5017913;28;1004;-55
2021/11/14 10:46:20;;;;;;;;;;;14.70;99.90;;;;;;5000379;28;1110;-55
2021/11/14 10:48:46;;;;;;;;;;;14.80;99.90;;;;;;5007003;28;1071;-52
2021/11/14 10:51:13;;;;;;;;;;;14.80;99.90;;;;;;5023922;28;1165;-52
2021/11/14 10:53:41;;;;;;;;;;;14.80;99.90;;;;;;5033908;28;842;-52
2021/11/14 10:56:11;;;;;;;;;;;14.90;99.90;;;;;;5035543;28;888;-52
2021/11/14 10:58:41;;;;;;;;;;;14.90;99.90;;;;;;5035971;28;786;-52
2021/11/14 11:01:08;;;;;;;;;;;15.00;99.90;;;;;;5028534;28;1906;-51
2021/11/14 11:03:36;;;;;;;;;;;15.10;99.90;;;;;;5028874;28;1130;-50
2021/11/14 11:06:03;;;;;;;;;;;15.20;99.90;;;;;;5025559;28;1212;-50
2021/11/14 11:08:29;;;;;;;;;;;15.40;99.90;;;;;;5028627;28;1157;-50
2021/11/14 11:10:57;;;;;;;;;;;15.60;99.90;;;;;;5027890;28;1319;-52
2021/11/14 11:13:31;;;;;;;;;;;15.70;99.90;;;;;;5020757;28;1673;-51
2021/11/14 11:16:00;;;;;;;;;;;16.00;99.90;;;;;;5022343;28;1415;-52
2021/11/14 11:18:26;;;;;;;;;;;16.30;99.90;;;;;;5032422;28;1360;-52
2021/11/14 11:20:54;;;;;;;;;;;16.50;99.90;;;;;;5028029;28;1975;-52
2021/11/14 11:23:21;;;;;;;;;;;16.60;99.90;;;;;;5030616;28;885;-49
2021/11/14 11:25:48;;;;;;;;;;;16.80;99.90;;;;;;5033123;28;1278;-51
2021/11/14 11:28:20;;;;;;;;;;;16.90;99.90;;;;;;5018629;28;1319;-50
2021/11/14 11:30:48;;;;;;;;;;;17.00;99.90;;;;;;5015309;28;1323;-50
2021/11/14 11:33:16;;;;;;;;;;;17.10;99.90;;;;;;5019097;28;1083;-53
2021/11/14 11:35:42;;;;;;;;;;;17.20;99.90;;;;;;5024709;28;1174;-52
2021/11/14 11:38:08;;;;;;;;;;;17.20;99.90;;;;;;5014716;28;1033;-52
2021/11/14 11:40:35;;;;;;;;;;;17.30;99.90;;;;;;5002968;28;1910;-52
2021/11/14 11:43:02;;;;;;;;;;;17.50;99.90;;;;;;5003945;28;1463;-53
2021/11/14 11:45:28;;;;;;;;;;;17.50;99.90;;;;;;5016008;28;845;-53
2021/11/14 11:47:56;;;;;;;;;;;17.50;99.90;;;;;;5015989;28;838;-53
2021/11/14 11:50:23;;;;;;;;;;;17.50;99.90;;;;;;5016034;28;1010;-52
2021/11/14 11:52:49;;;;;;;;;;;17.40;99.90;;;;;;5023925;28;906;-53
2021/11/14 11:55:26;;;;;;;;;;;17.40;99.90;;;;;;5026641;28;1194;-53
2021/11/14 11:57:54;;;;;;;;;;;17.40;99.90;;;;;;5023410;28;1027;-53
2021/11/14 12:00:21;;;;;;;;;;;17.40;99.90;;;;;;5002874;28;1906;-53
2021/11/14 12:02:47;;;;;;;;;;;17.50;99.90;;;;;;5024090;28;1305;-53
2021/11/14 12:05:15;;;;;;;;;;;17.60;99.90;;;;;;5020055;28;1320;-52
2021/11/14 12:07:46;;;;;;;;;;;17.60;99.90;;;;;;5033959;28;975;-53
2021/11/14 12:10:15;;;;;;;;;;;17.50;99.90;;;;;;5018352;28;1253;-53
2021/11/14 12:12:50;;;;;;;;;;;17.50;99.90;;;;;;5025734;28;1343;-52
2021/11/14 12:15:18;;;;;;;;;;;17.50;99.90;;;;;;5025753;28;1503;-52
2021/11/14 12:17:53;;;;;;;;;;;17.60;99.90;;;;;;5021553;28;1393;-52
2021/11/14 12:20:26;;;;;;;;;;;17.60;99.90;;;;;;5033790;28;1981;-52
2021/11/14 12:22:54;;;;;;;;;;;17.60;99.90;;;;;;5029676;28;1381;-52
2021/11/14 12:25:34;;;;;;;;;;;17.60;99.90;;;;;;5033248;28;1320;-52
2021/11/14 12:28:06;;;;;;;;;;;17.60;99.90;;;;;;5027414;28;1552;-52
2021/11/14 12:30:34;;;;;;;;;;;17.60;99.90;;;;;;5024896;28;1511;-52
2021/11/14 12:33:00;;;;;;;;;;;17.60;99.90;;;;;;5023238;28;1177;-52
2021/11/14 12:35:31;;;;;;;;;;;17.60;99.90;;;;;;5027443;28;1377;-52
2021/11/14 12:37:59;;;;;;;;;;;17.70;99.90;;;;;;5028754;28;1507;-52
2021/11/14 12:40:28;;;;;;;;;;;17.70;99.90;;;;;;5021844;28;1910;-52
2021/11/14 12:43:05;;;;;;;;;;;17.80;99.90;;;;;;5031689;28;1181;-52
2021/11/14 12:45:31;;;;;;;;;;;17.80;99.90;;;;;;5031847;28;1250;-52
2021/11/14 12:47:57;;;;;;;;;;;17.80;99.90;;;;;;5019884;28;1370;-52
2021/11/14 12:50:28;;;;;;;;;;;17.70;99.90;;;;;;5024150;28;1273;-52
2021/11/14 12:53:06;;;;;;;;;;;17.70;99.90;;;;;;5020722;28;1262;-52
2021/11/14 12:55:32;;;;;;;;;;;17.70;99.90;;;;;;5018219;28;1723;-52
2021/11/14 12:58:00;;;;;;;;;;;17.50;99.90;;;;;;5035666;28;1632;-52
2021/11/14 13:00:28;;;;;;;;;;;17.30;99.90;;;;;;5020159;28;1967;-52
2021/11/14 13:02:54;;;;;;;;;;;17.20;99.90;;;;;;5028353;28;1390;-52
2021/11/14 13:05:20;;;;;;;;;;;17.40;99.90;;;;;;5020524;28;796;-52
2021/11/14 13:08:04;;;;;;;;;;;17.70;99.90;;;;;;5002895;28;870;-53
2021/11/14 13:10:36;;;;;;;;;;;18.00;99.90;;;;;;5035222;28;1620;-52
2021/11/14 13:13:03;;;;;;;;;;;18.10;99.90;;;;;;5019677;28;1065;-54
2021/11/14 13:15:29;;;;;;;;;;;18.10;99.90;;;;;;5019302;28;1080;-53
2021/11/14 13:17:57;;;;;;;;;;;18.20;99.90;;;;;;5019370;28;849;-53
2021/11/14 13:20:24;;;;;;;;;;;18.20;99.90;;;;;;5019688;28;1922;-52
2021/11/14 13:22:54;;;;;;;;;;;18.30;99.90;;;;;;5029408;28;798;-52
2021/11/14 13:25:25;;;;;;;;;;;18.20;99.90;;;;;;5014926;28;1055;-52
2021/11/14 13:27:53;;;;;;;;;;;18.30;99.90;;;;;;5018851;28;1653;-52
2021/11/14 13:30:22;;;;;;;;;;;18.20;99.90;;;;;;5019696;28;855;-51
2021/11/14 13:32:49;;;;;;;;;;;18.30;99.90;;;;;;5004786;28;1169;-52
2021/11/14 13:35:15;;;;;;;;;;;18.40;99.90;;;;;;5023223;28;1370;-51
2021/11/14 13:37:42;;;;;;;;;;;18.40;99.90;;;;;;5018894;28;806;-51
2021/11/14 13:40:13;;;;;;;;;;;18.40;99.90;;;;;;5018366;28;1918;-51
2021/11/14 13:42:43;;;;;;;;;;;18.50;99.90;;;;;;5018788;28;832;-51
2021/11/14 13:45:20;;;;;;;;;;;18.40;99.90;;;;;;5000166;28;1093;-52
2021/11/14 13:47:56;;;;;;;;;;;18.50;99.90;;;;;;5032283;28;862;-52
2021/11/14 13:50:24;;;;;;;;;;;18.50;99.90;;;;;;5024533;28;1158;-52
2021/11/14 13:52:52;;;;;;;;;;;18.50;99.90;;;;;;5030370;28;829;-53
2021/11/14 13:55:18;;;;;;;;;;;18.50;99.90;;;;;;5020346;28;885;-53
2021/11/14 13:57:46;;;;;;;;;;;18.50;99.90;;;;;;5018071;28;779;-53
2021/11/14 14:00:23;;;;;;;;;;;18.50;99.90;;;;;;5018511;28;1914;-53
2021/11/14 14:02:50;;;;;;;;;;;18.50;99.90;;;;;;5022191;28;1601;-53
2021/11/14 14:05:16;;;;;;;;;;;18.50;99.90;;;;;;5000852;28;916;-53
2021/11/14 14:07:42;;;;;;;;;;;18.60;99.90;;;;;;5028111;28;909;-53
2021/11/14 14:10:16;;;;;;;;;;;18.60;99.90;;;;;;5030432;28;1688;-53
2021/11/14 14:12:49;;;;;;;;;;;18.60;99.90;;;;;;5022564;28;1048;-52
2021/11/14 14:15:22;;;;;;;;;;;18.70;99.90;;;;;;5022018;28;1149;-52
2021/11/14 14:17:52;;;;;;;;;;;18.70;99.90;;;;;;5024370;28;1155;-53
2021/11/14 14:20:18;;;;;;;;;;;18.70;99.90;;;;;;5018304;28;1906;-53
2021/11/14 14:22:45;;;;;;;;;;;18.70;99.90;;;;;;5027629;28;789;-53
2021/11/14 14:25:13;;;;;;;;;;;18.70;99.90;;;;;;5031618;28;1377;-52
2021/11/14 14:27:54;;;;;;;;;;;18.70;99.90;;;;;;5021215;28;1144;-52
2021/11/14 14:30:21;;;;;;;;;;;18.70;99.90;;;;;;5019994;28;1568;-52
2021/11/14 14:32:49;;;;;;;;;;;18.70;99.90;;;;;;5017792;28;877;-52
2021/11/14 14:35:15;;;;;;;;;;;18.70;99.90;;;;;;5018378;28;747;-54
2021/11/14 14:37:42;;;;;;;;;;;18.70;99.90;;;;;;5017417;28;841;-54